createdAt,value
2022-08-30T00:00:08.303Z,403
2022-08-30T00:01:07.272Z,385
2022-08-30T00:02:26.950Z,391
2022-08-30T00:03:07.680Z,406
2022-08-30T00:04:07.580Z,396
2022-08-30T00:05:07.237Z,388
2022-08-30T00:06:07.371Z,391
2022-08-30T00:07:07.574Z,397
2022-08-30T00:08:07.171Z,385
2022-08-30T00:09:07.211Z,396
2022-08-30T00:10:07.543Z,393
2022-08-30T00:11:07.991Z,387
2022-08-30T00:12:07.673Z,394
2022-08-30T00:13:07.362Z,399
2022-08-30T00:14:07.625Z,401
2022-08-30T00:15:07.386Z,398
2022-08-30T00:16:07.680Z,385
2022-08-30T00:17:07.322Z,389
2022-08-30T00:18:07.525Z,380
2022-08-30T00:19:08.067Z,387
2022-08-30T00:20:07.550Z,395
2022-08-30T00:21:07.539Z,396
2022-08-30T00:22:07.160Z,395
2022-08-30T00:23:07.423Z,386
2022-08-30T00:24:07.317Z,387
2022-08-30T00:25:07.736Z,392
2022-08-30T00:26:07.271Z,385
2022-08-30T00:27:07.466Z,396
2022-08-30T00:28:07.627Z,402
2022-08-30T00:29:06.982Z,401
2022-08-30T00:31:07.780Z,403
2022-08-30T00:32:07.369Z,405
2022-08-30T00:33:07.740Z,416
2022-08-30T00:34:07.275Z,407
2022-08-30T00:35:07.462Z,402
2022-08-30T00:36:07.532Z,403
2022-08-30T00:37:07.843Z,412
2022-08-30T00:38:07.273Z,404
2022-08-30T00:39:07.589Z,409
2022-08-30T00:40:08.122Z,407
2022-08-30T00:41:07.424Z,401
2022-08-30T00:42:07.536Z,413
2022-08-30T00:43:07.760Z,401
2022-08-30T00:44:07.208Z,400
2022-08-30T00:45:07.533Z,401
2022-08-30T00:46:07.235Z,396
2022-08-30T00:47:07.717Z,405
2022-08-30T00:48:07.132Z,396
2022-08-30T00:49:07.255Z,388
2022-08-30T00:50:07.513Z,387
2022-08-30T00:51:07.099Z,398
2022-08-30T00:52:07.379Z,391
2022-08-30T00:55:07.450Z,397
2022-08-30T00:57:07.573Z,398
2022-08-30T00:58:07.558Z,383
2022-08-30T00:59:07.634Z,385
2022-08-30T01:00:08.622Z,402
2022-08-30T01:01:07.584Z,407
2022-08-30T01:02:07.196Z,399
2022-08-30T01:03:07.604Z,381
2022-08-30T01:04:07.627Z,366
2022-08-30T01:05:07.872Z,409
2022-08-30T01:06:07.236Z,387
2022-08-30T01:07:07.334Z,380
2022-08-30T01:08:07.476Z,382
2022-08-30T01:09:07.648Z,386
2022-08-30T01:10:07.814Z,392
2022-08-30T01:11:07.188Z,381
2022-08-30T01:12:07.305Z,383
2022-08-30T01:13:07.270Z,400
2022-08-30T01:14:07.528Z,397
2022-08-30T01:15:08.115Z,387
2022-08-30T01:16:07.413Z,391
2022-08-30T01:17:07.632Z,381
2022-08-30T01:18:07.824Z,391
2022-08-30T01:19:07.285Z,403
2022-08-30T01:20:07.657Z,404
2022-08-30T01:21:07.774Z,378
2022-08-30T01:22:07.291Z,432
2022-08-30T01:23:07.430Z,411
2022-08-30T01:24:07.622Z,409
2022-08-30T01:25:08.053Z,394
2022-08-30T01:26:07.423Z,381
2022-08-30T01:27:07.457Z,378
2022-08-30T01:28:07.682Z,387
2022-08-30T01:29:07.108Z,385
2022-08-30T01:30:07.716Z,390
2022-08-30T01:31:07.285Z,403
2022-08-30T01:32:07.942Z,396
2022-08-30T01:33:07.361Z,397
2022-08-30T01:34:07.473Z,395
2022-08-30T01:35:07.679Z,397
2022-08-30T01:36:07.285Z,379
2022-08-30T01:37:07.547Z,411
2022-08-30T01:38:07.327Z,376
2022-08-30T01:39:07.651Z,389
2022-08-30T01:40:07.273Z,398
2022-08-30T01:41:07.269Z,409
2022-08-30T01:42:07.382Z,390
2022-08-30T01:43:07.476Z,384
2022-08-30T01:44:07.692Z,397
2022-08-30T01:45:07.192Z,403
2022-08-30T01:47:07.236Z,398
2022-08-30T01:48:07.434Z,396
2022-08-30T01:49:07.916Z,389
2022-08-30T01:50:07.299Z,394
2022-08-30T01:51:07.285Z,400
2022-08-30T01:52:07.341Z,398
2022-08-30T01:53:07.238Z,397
2022-08-30T01:54:07.304Z,398
2022-08-30T01:55:07.412Z,391
2022-08-30T01:56:07.688Z,395
2022-08-30T01:57:07.088Z,397
2022-08-30T01:58:07.359Z,394
2022-08-30T01:59:07.409Z,402
2022-08-30T02:00:08.065Z,399
2022-08-30T02:01:07.297Z,388
2022-08-30T02:02:07.557Z,382
2022-08-30T02:03:07.128Z,381
2022-08-30T02:04:07.662Z,390
2022-08-30T02:05:07.440Z,388
2022-08-30T02:06:07.790Z,398
2022-08-30T02:07:07.236Z,393
2022-08-30T02:08:07.211Z,380
2022-08-30T02:09:07.420Z,363
2022-08-30T02:10:07.767Z,421
2022-08-30T02:11:07.212Z,383
2022-08-30T02:12:07.321Z,379
2022-08-30T02:15:21.874Z,388
2022-08-30T02:16:07.216Z,390
2022-08-30T02:18:07.789Z,405
2022-08-30T02:19:07.101Z,404
2022-08-30T02:20:07.765Z,388
2022-08-30T02:21:07.254Z,396
2022-08-30T02:22:07.325Z,403
2022-08-30T02:23:07.400Z,397
2022-08-30T02:24:07.608Z,384
2022-08-30T02:25:11.197Z,383
2022-08-30T02:26:07.087Z,393
2022-08-30T02:27:07.534Z,386
2022-08-30T02:28:07.564Z,395
2022-08-30T02:29:07.056Z,385
2022-08-30T02:30:07.385Z,398
2022-08-30T02:31:07.534Z,390
2022-08-30T02:32:07.048Z,388
2022-08-30T02:33:07.488Z,390
2022-08-30T02:34:07.316Z,399
2022-08-30T02:35:07.767Z,401
2022-08-30T02:36:07.037Z,393
2022-08-30T02:37:07.337Z,384
2022-08-30T02:38:07.318Z,389
2022-08-30T02:39:07.732Z,390
2022-08-30T02:40:07.492Z,394
2022-08-30T02:41:07.752Z,387
2022-08-30T02:42:07.127Z,395
2022-08-30T02:43:07.264Z,396
2022-08-30T02:44:07.516Z,385
2022-08-30T02:45:08.015Z,391
2022-08-30T02:46:07.528Z,389
2022-08-30T02:47:07.494Z,399
2022-08-30T02:48:06.870Z,400
2022-08-30T02:49:30.316Z,415
2022-08-30T02:50:07.340Z,405
2022-08-30T02:51:09.521Z,400
2022-08-30T02:52:06.967Z,381
2022-08-30T02:53:07.178Z,393
2022-08-30T02:54:07.565Z,403
2022-08-30T02:55:07.671Z,396
2022-08-30T02:57:07.029Z,400
2022-08-30T02:58:07.220Z,394
2022-08-30T02:59:07.595Z,375
2022-08-30T03:00:08.655Z,423
2022-08-30T03:01:07.403Z,402
2022-08-30T03:02:07.855Z,396
2022-08-30T03:03:06.903Z,409
2022-08-30T03:04:07.214Z,404
2022-08-30T03:05:07.291Z,392
2022-08-30T03:06:07.576Z,382
2022-08-30T03:07:07.641Z,395
2022-08-30T03:08:07.144Z,398
2022-08-30T03:09:07.444Z,417
2022-08-30T03:10:07.708Z,409
2022-08-30T03:11:07.830Z,393
2022-08-30T03:12:06.901Z,390
2022-08-30T03:13:07.279Z,393
2022-08-30T03:14:07.462Z,405
2022-08-30T03:16:07.418Z,429
2022-08-30T03:17:11.231Z,395
2022-08-30T03:18:07.803Z,389
2022-08-30T03:19:07.218Z,397
2022-08-30T03:20:07.871Z,393
2022-08-30T03:21:07.432Z,394
2022-08-30T03:22:07.172Z,395
2022-08-30T03:23:07.773Z,404
2022-08-30T03:24:07.512Z,400
2022-08-30T03:25:07.047Z,397
2022-08-30T03:26:07.186Z,408
2022-08-30T03:27:07.333Z,411
2022-08-30T03:28:07.446Z,397
2022-08-30T03:29:07.674Z,400
2022-08-30T03:30:08.057Z,407
2022-08-30T03:31:07.575Z,405
2022-08-30T03:32:07.915Z,395
2022-08-30T03:33:07.243Z,425
2022-08-30T03:34:07.154Z,372
2022-08-30T03:35:07.747Z,381
2022-08-30T03:36:07.266Z,394
2022-08-30T03:37:07.702Z,389
2022-08-30T03:38:07.048Z,388
2022-08-30T03:39:07.542Z,397
2022-08-30T03:40:07.268Z,394
2022-08-30T03:41:07.562Z,390
2022-08-30T03:42:06.989Z,387
2022-08-30T03:43:07.579Z,394
2022-08-30T03:44:07.933Z,397
2022-08-30T03:45:07.620Z,400
2022-08-30T03:46:07.176Z,398
2022-08-30T03:47:07.700Z,397
2022-08-30T03:48:07.188Z,401
2022-08-30T03:49:07.330Z,403
2022-08-30T03:50:07.781Z,396
2022-08-30T03:51:07.171Z,393
2022-08-30T03:52:07.794Z,397
2022-08-30T03:53:07.077Z,401
2022-08-30T03:54:07.476Z,400
2022-08-30T03:55:07.328Z,395
2022-08-30T03:56:07.473Z,396
2022-08-30T03:57:07.884Z,401
2022-08-30T03:58:07.513Z,413
2022-08-30T03:59:07.828Z,390
2022-08-30T04:00:07.818Z,386
2022-08-30T04:01:07.722Z,397
2022-08-30T04:02:07.186Z,399
2022-08-30T04:03:07.523Z,404
2022-08-30T04:04:07.731Z,402
2022-08-30T04:05:06.964Z,406
2022-08-30T04:06:07.364Z,402
2022-08-30T04:07:07.525Z,403
2022-08-30T04:08:07.047Z,416
2022-08-30T04:09:07.164Z,409
2022-08-30T04:10:07.486Z,406
2022-08-30T04:12:07.119Z,399
2022-08-30T04:13:07.427Z,388
2022-08-30T04:14:07.526Z,389
2022-08-30T04:15:07.909Z,393
2022-08-30T04:16:12.201Z,407
2022-08-30T04:17:07.738Z,414
2022-08-30T04:18:07.304Z,406
2022-08-30T04:19:07.800Z,396
2022-08-30T04:20:07.137Z,400
2022-08-30T04:21:10.317Z,409
2022-08-30T04:22:07.787Z,411
2022-08-30T04:23:07.139Z,406
2022-08-30T04:24:07.281Z,396
2022-08-30T04:25:07.908Z,403
2022-08-30T04:26:07.874Z,393
2022-08-30T04:27:07.215Z,385
2022-08-30T04:28:07.405Z,398
2022-08-30T04:29:07.722Z,389
2022-08-30T04:30:07.343Z,395
2022-08-30T04:31:07.831Z,408
2022-08-30T04:32:07.860Z,403
2022-08-30T04:33:07.401Z,391
2022-08-30T04:34:07.745Z,385
2022-08-30T04:35:07.421Z,382
2022-08-30T04:36:07.829Z,393
2022-08-30T04:37:07.217Z,392
2022-08-30T04:38:07.936Z,399
2022-08-30T04:39:07.288Z,390
2022-08-30T04:40:07.635Z,379
2022-08-30T04:41:06.964Z,404
2022-08-30T04:42:07.390Z,389
2022-08-30T04:43:07.629Z,383
2022-08-30T04:44:07.015Z,399
2022-08-30T04:45:07.756Z,397
2022-08-30T04:46:07.908Z,375
2022-08-30T04:47:07.897Z,389
2022-08-30T04:48:07.411Z,393
2022-08-30T04:49:07.820Z,390
2022-08-30T04:50:07.493Z,392
2022-08-30T04:51:07.191Z,395
2022-08-30T04:52:07.817Z,392
2022-08-30T04:53:07.492Z,402
2022-08-30T04:54:07.240Z,406
2022-08-30T04:55:07.913Z,390
2022-08-30T04:56:07.432Z,388
2022-08-30T04:57:07.793Z,385
2022-08-30T04:58:07.184Z,378
2022-08-30T04:59:07.539Z,401
2022-08-30T05:00:08.769Z,372
2022-08-30T05:01:07.913Z,384
2022-08-30T05:02:10.277Z,387
2022-08-30T05:03:07.670Z,378
2022-08-30T05:04:07.404Z,387
2022-08-30T05:05:08.006Z,401
2022-08-30T05:06:07.382Z,398
2022-08-30T05:07:07.871Z,399
2022-08-30T05:08:07.647Z,397
2022-08-30T05:09:07.285Z,390
2022-08-30T05:10:11.093Z,396
2022-08-30T05:11:07.459Z,387
2022-08-30T05:12:07.989Z,393
2022-08-30T05:13:07.539Z,404
2022-08-30T05:14:07.880Z,394
2022-08-30T05:15:07.796Z,379
2022-08-30T05:16:07.626Z,407
2022-08-30T05:17:07.370Z,391
2022-08-30T05:18:08.007Z,384
2022-08-30T05:19:07.299Z,388
2022-08-30T05:21:07.614Z,393
2022-08-30T05:22:07.516Z,398
2022-08-30T05:23:07.979Z,393
2022-08-30T05:24:07.598Z,391
2022-08-30T05:25:07.451Z,395
2022-08-30T05:26:07.812Z,385
2022-08-30T05:27:07.385Z,394
2022-08-30T05:28:07.927Z,402
2022-08-30T05:29:07.420Z,405
2022-08-30T05:30:08.218Z,400
2022-08-30T05:31:07.718Z,402
2022-08-30T05:32:08.142Z,384
2022-08-30T05:33:07.685Z,391
2022-08-30T05:34:07.377Z,395
2022-08-30T05:35:08.023Z,390
2022-08-30T05:36:07.804Z,388
2022-08-30T05:37:07.390Z,386
2022-08-30T05:38:07.376Z,394
2022-08-30T05:39:07.621Z,400
2022-08-30T05:40:11.017Z,391
2022-08-30T05:41:11.029Z,397
2022-08-30T05:42:07.726Z,393
2022-08-30T05:43:08.148Z,399
2022-08-30T05:44:07.765Z,397
2022-08-30T05:45:07.417Z,390
2022-08-30T05:46:08.078Z,391
2022-08-30T05:47:08.103Z,397
2022-08-30T05:48:07.583Z,400
2022-08-30T05:49:07.188Z,393
2022-08-30T05:50:08.254Z,397
2022-08-30T05:51:07.511Z,396
2022-08-30T05:52:07.196Z,403
2022-08-30T05:53:07.526Z,397
2022-08-30T05:54:07.273Z,393
2022-08-30T05:55:08.063Z,405
2022-08-30T05:56:07.498Z,412
2022-08-30T05:57:07.750Z,416
2022-08-30T05:58:07.391Z,408
2022-08-30T05:59:07.066Z,402
2022-08-30T06:00:08.545Z,393
2022-08-30T06:01:07.373Z,403
2022-08-30T06:02:07.559Z,411
2022-08-30T06:03:07.726Z,403
2022-08-30T06:04:07.613Z,396
2022-08-30T06:05:08.331Z,392
2022-08-30T06:06:07.659Z,389
2022-08-30T06:07:09.505Z,391
2022-08-30T06:08:07.493Z,386
2022-08-30T06:09:08.131Z,388
2022-08-30T06:10:07.794Z,394
2022-08-30T06:11:07.949Z,396
2022-08-30T06:12:07.979Z,386
2022-08-30T06:13:07.685Z,372
2022-08-30T06:14:07.171Z,375
2022-08-30T06:15:07.857Z,387
2022-08-30T06:16:07.257Z,384
2022-08-30T06:17:08.062Z,389
2022-08-30T06:18:07.538Z,377
2022-08-30T06:19:07.352Z,380
2022-08-30T06:20:07.369Z,389
2022-08-30T06:21:08.390Z,395
2022-08-30T06:22:07.471Z,390
2022-08-30T06:23:07.954Z,375
2022-08-30T06:24:07.440Z,389
2022-08-30T06:25:07.980Z,393
2022-08-30T06:26:07.945Z,386
2022-08-30T06:27:07.274Z,378
2022-08-30T06:28:07.482Z,375
2022-08-30T06:29:07.978Z,372
2022-08-30T06:30:07.706Z,377
2022-08-30T06:31:07.331Z,384
2022-08-30T06:32:08.122Z,382
2022-08-30T06:33:07.878Z,380
2022-08-30T06:34:07.329Z,382
2022-08-30T06:35:07.694Z,387
2022-08-30T06:36:07.297Z,384
2022-08-30T06:37:07.779Z,378
2022-08-30T06:38:07.300Z,367
2022-08-30T06:39:08.317Z,377
2022-08-30T06:40:08.202Z,371
2022-08-30T06:41:07.741Z,381
2022-08-30T06:42:07.315Z,379
2022-08-30T06:44:07.364Z,374
2022-08-30T06:46:07.441Z,364
2022-08-30T06:47:07.564Z,371
2022-08-30T06:48:07.322Z,378
2022-08-30T06:49:07.929Z,385
2022-08-30T06:50:07.371Z,389
2022-08-30T06:51:07.655Z,384
2022-08-30T06:52:07.188Z,385
2022-08-30T06:53:07.210Z,380
2022-08-30T06:54:07.331Z,387
2022-08-30T06:55:07.816Z,375
2022-08-30T06:56:07.414Z,390
2022-08-30T06:57:08.200Z,370
2022-08-30T06:58:07.655Z,387
2022-08-30T06:59:07.363Z,388
2022-08-30T07:00:08.496Z,386
2022-08-30T07:01:07.376Z,391
2022-08-30T07:02:07.858Z,392
2022-08-30T07:03:07.465Z,387
2022-08-30T07:04:07.005Z,390
2022-08-30T07:06:07.214Z,389
2022-08-30T07:07:07.829Z,382
2022-08-30T07:08:07.412Z,391
2022-08-30T07:09:07.718Z,387
2022-08-30T07:10:07.711Z,398
2022-08-30T07:11:07.186Z,394
2022-08-30T07:12:07.291Z,400
2022-08-30T07:13:07.589Z,390
2022-08-30T07:14:08.060Z,394
2022-08-30T07:15:07.668Z,382
2022-08-30T07:16:07.370Z,378
2022-08-30T07:17:07.489Z,386
2022-08-30T07:18:07.432Z,380
2022-08-30T07:19:07.929Z,381
2022-08-30T07:20:07.560Z,382
2022-08-30T07:21:07.254Z,393
2022-08-30T07:22:07.919Z,376
2022-08-30T07:23:07.507Z,380
2022-08-30T07:24:08.750Z,374
2022-08-30T07:25:07.595Z,384
2022-08-30T07:27:07.861Z,393
2022-08-30T07:28:07.595Z,387
2022-08-30T07:29:07.427Z,381
2022-08-30T07:30:08.258Z,375
2022-08-30T07:32:07.917Z,369
2022-08-30T07:33:07.512Z,381
2022-08-30T07:34:07.923Z,383
2022-08-30T07:35:07.111Z,381
2022-08-30T07:36:07.520Z,377
2022-08-30T07:37:07.993Z,375
2022-08-30T07:38:07.172Z,376
2022-08-30T07:39:07.657Z,384
2022-08-30T07:41:07.219Z,378
2022-08-30T07:42:07.747Z,388
2022-08-30T07:43:07.635Z,400
2022-08-30T07:44:07.476Z,387
2022-08-30T07:45:07.414Z,375
2022-08-30T07:46:08.141Z,379
2022-08-30T07:47:07.806Z,382
2022-08-30T07:48:07.055Z,373
2022-08-30T07:49:11.208Z,369
2022-08-30T07:50:07.237Z,368
2022-08-30T07:51:07.450Z,375
2022-08-30T07:52:07.591Z,387
2022-08-30T07:53:10.674Z,376
2022-08-30T07:54:07.380Z,370
2022-08-30T07:55:07.818Z,368
2022-08-30T07:56:07.558Z,369
2022-08-30T07:57:08.041Z,374
2022-08-30T07:58:07.114Z,348
2022-08-30T07:59:07.181Z,367
2022-08-30T08:00:08.194Z,369
2022-08-30T08:01:07.039Z,368
2022-08-30T08:02:07.831Z,367
2022-08-30T08:04:07.256Z,369
2022-08-30T08:05:07.446Z,380
2022-08-30T08:07:07.887Z,374
2022-08-30T08:09:07.591Z,365
2022-08-30T08:10:07.733Z,366
2022-08-30T08:11:07.472Z,370
2022-08-30T08:12:07.842Z,379
2022-08-30T08:13:07.280Z,354
2022-08-30T08:14:07.497Z,370
2022-08-30T08:15:08.724Z,376
2022-08-30T08:16:07.758Z,371
2022-08-30T08:17:07.516Z,367
2022-08-30T08:18:07.949Z,363
2022-08-30T08:19:07.482Z,368
2022-08-30T08:20:07.287Z,371
2022-08-30T08:21:07.548Z,373
2022-08-30T08:22:20.868Z,368
2022-08-30T08:23:07.720Z,354
2022-08-30T08:24:07.494Z,363
2022-08-30T08:25:07.511Z,367
2022-08-30T08:26:07.388Z,350
2022-08-30T08:27:07.632Z,393
2022-08-30T08:28:07.163Z,364
2022-08-30T08:29:07.864Z,358
2022-08-30T08:30:07.651Z,351
2022-08-30T08:31:07.494Z,355
2022-08-30T08:32:07.755Z,361
2022-08-30T08:33:07.496Z,367
2022-08-30T08:34:07.470Z,355
2022-08-30T08:35:07.515Z,357
2022-08-30T08:36:09.333Z,370
2022-08-30T08:37:07.555Z,365
2022-08-30T08:38:07.313Z,355
2022-08-30T08:39:07.844Z,349
2022-08-30T08:41:06.918Z,358
2022-08-30T08:42:07.441Z,346
2022-08-30T08:43:07.494Z,352
2022-08-30T08:44:07.803Z,358
2022-08-30T08:46:07.094Z,367
2022-08-30T08:47:07.606Z,360
2022-08-30T08:48:07.403Z,350
2022-08-30T08:49:07.246Z,337
2022-08-30T08:51:07.731Z,340
2022-08-30T08:52:07.303Z,346
2022-08-30T08:53:07.870Z,364
2022-08-30T08:54:07.330Z,362
2022-08-30T08:55:07.564Z,357
2022-08-30T08:56:07.014Z,359
2022-08-30T08:57:07.779Z,347
2022-08-30T08:58:07.714Z,345
2022-08-30T08:59:07.011Z,350
2022-08-30T09:00:08.227Z,357
2022-08-30T09:01:07.823Z,365
2022-08-30T09:02:07.720Z,368
2022-08-30T09:03:07.185Z,353
2022-08-30T09:04:07.649Z,352
2022-08-30T09:05:07.412Z,349
2022-08-30T09:06:07.370Z,341
2022-08-30T09:07:08.143Z,344
2022-08-30T09:08:17.529Z,347
2022-08-30T09:09:07.928Z,356
2022-08-30T09:10:07.478Z,375
2022-08-30T09:11:07.491Z,369
2022-08-30T09:12:12.235Z,361
2022-08-30T09:13:07.594Z,352
2022-08-30T09:14:07.666Z,357
2022-08-30T09:15:07.922Z,359
2022-08-30T09:16:08.987Z,360
2022-08-30T09:17:07.691Z,342
2022-08-30T09:18:07.518Z,334
2022-08-30T09:19:07.618Z,340
2022-08-30T09:20:07.151Z,345
2022-08-30T09:21:07.439Z,350
2022-08-30T09:22:07.390Z,349
2022-08-30T09:23:07.445Z,354
2022-08-30T09:24:07.548Z,358
2022-08-30T09:25:07.918Z,363
2022-08-30T09:26:07.149Z,376
2022-08-30T09:27:07.353Z,355
2022-08-30T09:28:07.403Z,346
2022-08-30T09:29:07.581Z,348
2022-08-30T09:30:07.446Z,349
2022-08-30T09:31:11.911Z,346
2022-08-30T09:32:25.166Z,339
2022-08-30T09:33:07.009Z,345
2022-08-30T09:34:07.332Z,349
2022-08-30T09:35:07.728Z,355
2022-08-30T09:36:07.418Z,330
2022-08-30T09:37:07.733Z,369
2022-08-30T09:38:07.211Z,346
2022-08-30T09:39:07.334Z,333
2022-08-30T09:40:07.465Z,349
2022-08-30T09:41:07.069Z,355
2022-08-30T09:42:07.692Z,347
2022-08-30T09:43:07.286Z,337
2022-08-30T09:44:07.225Z,326
2022-08-30T09:45:07.932Z,345
2022-08-30T09:46:07.402Z,351
2022-08-30T09:47:07.539Z,355
2022-08-30T09:48:07.091Z,356
2022-08-30T09:49:07.473Z,354
2022-08-30T09:50:07.667Z,353
2022-08-30T09:51:07.095Z,349
2022-08-30T09:52:07.518Z,338
2022-08-30T09:53:07.640Z,340
2022-08-30T09:54:17.025Z,339
2022-08-30T09:55:07.798Z,340
2022-08-30T09:56:07.350Z,333
2022-08-30T09:57:11.669Z,336
2022-08-30T09:59:07.497Z,340
2022-08-30T10:00:08.142Z,341
2022-08-30T10:01:07.127Z,340
2022-08-30T10:02:07.633Z,341
2022-08-30T10:03:07.132Z,323
2022-08-30T10:04:07.535Z,366
2022-08-30T10:05:07.511Z,353
2022-08-30T10:06:07.156Z,357
2022-08-30T10:07:07.301Z,352
2022-08-30T10:08:07.471Z,353
2022-08-30T10:09:07.092Z,340
2022-08-30T10:10:07.444Z,338
2022-08-30T10:11:07.892Z,337
2022-08-30T10:12:07.382Z,330
2022-08-30T10:13:07.310Z,326
2022-08-30T10:14:07.593Z,340
2022-08-30T10:15:08.020Z,341
2022-08-30T10:16:07.391Z,349
2022-08-30T10:17:07.437Z,354
2022-08-30T10:18:07.520Z,344
2022-08-30T10:19:07.216Z,337
2022-08-30T10:20:07.460Z,350
2022-08-30T10:21:07.443Z,352
2022-08-30T10:22:07.672Z,351
2022-08-30T10:23:07.771Z,349
2022-08-30T10:24:07.362Z,332
2022-08-30T10:25:07.544Z,331
2022-08-30T10:26:07.380Z,330
2022-08-30T10:27:07.088Z,334
2022-08-30T10:28:07.386Z,340
2022-08-30T10:29:07.047Z,350
2022-08-30T10:30:07.776Z,341
2022-08-30T10:31:07.899Z,351
2022-08-30T10:32:07.989Z,350
2022-08-30T10:33:07.714Z,356
2022-08-30T10:34:07.128Z,359
2022-08-30T10:35:07.630Z,357
2022-08-30T10:36:10.367Z,353
2022-08-30T10:37:07.295Z,344
2022-08-30T10:38:07.414Z,357
2022-08-30T10:39:07.311Z,354
2022-08-30T10:40:07.331Z,345
2022-08-30T10:41:07.757Z,343
2022-08-30T10:42:07.428Z,332
2022-08-30T10:43:07.409Z,372
2022-08-30T10:44:07.654Z,344
2022-08-30T10:45:07.407Z,346
2022-08-30T10:46:07.279Z,359
2022-08-30T10:47:07.446Z,368
2022-08-30T10:48:07.330Z,361
2022-08-30T10:49:07.390Z,351
2022-08-30T10:50:08.214Z,358
2022-08-30T10:51:07.559Z,365
2022-08-30T10:52:07.242Z,366
2022-08-30T10:53:07.786Z,359
2022-08-30T10:54:07.470Z,356
2022-08-30T10:55:07.056Z,342
2022-08-30T10:56:07.409Z,354
2022-08-30T10:57:07.378Z,329
2022-08-30T10:58:07.133Z,343
2022-08-30T10:59:07.609Z,354
2022-08-30T11:00:08.194Z,360
2022-08-30T11:01:07.523Z,364
2022-08-30T11:02:07.841Z,363
2022-08-30T11:03:07.063Z,365
2022-08-30T11:04:07.574Z,373
2022-08-30T11:05:07.829Z,364
2022-08-30T11:06:07.353Z,354
2022-08-30T11:07:09.968Z,355
2022-08-30T11:08:07.858Z,384
2022-08-30T11:09:07.593Z,348
2022-08-30T11:10:07.703Z,349
2022-08-30T11:12:07.441Z,368
2022-08-30T11:13:07.809Z,358
2022-08-30T11:14:07.203Z,364
2022-08-30T11:15:07.832Z,352
2022-08-30T11:16:07.675Z,367
2022-08-30T11:17:07.559Z,361
2022-08-30T11:18:07.102Z,353
2022-08-30T11:19:07.047Z,359
2022-08-30T11:20:07.615Z,342
2022-08-30T11:21:11.138Z,388
2022-08-30T11:22:07.509Z,369
2022-08-30T11:23:06.988Z,366
2022-08-30T11:24:11.114Z,367
2022-08-30T11:25:10.161Z,361
2022-08-30T11:26:07.982Z,359
2022-08-30T11:27:07.228Z,364
2022-08-30T11:28:07.791Z,349
2022-08-30T11:29:07.395Z,350
2022-08-30T11:30:07.805Z,360
2022-08-30T11:31:07.808Z,361
2022-08-30T11:32:07.929Z,350
2022-08-30T11:33:12.365Z,374
2022-08-30T11:34:07.354Z,359
2022-08-30T11:35:11.286Z,346
2022-08-30T11:36:07.195Z,338
2022-08-30T11:37:12.868Z,350
2022-08-30T11:38:07.715Z,360
2022-08-30T11:39:07.750Z,358
2022-08-30T11:40:07.587Z,355
2022-08-30T11:41:06.921Z,332
2022-08-30T11:42:07.219Z,326
2022-08-30T11:43:07.222Z,328
2022-08-30T11:44:06.952Z,336
2022-08-30T11:45:07.719Z,341
2022-08-30T11:46:10.393Z,327
2022-08-30T11:47:07.833Z,338
2022-08-30T11:48:07.741Z,345
2022-08-30T11:49:07.440Z,368
2022-08-30T11:50:09.793Z,377
2022-08-30T11:51:08.026Z,370
2022-08-30T11:52:26.411Z,366
2022-08-30T11:53:07.588Z,363
2022-08-30T11:54:07.672Z,369
2022-08-30T11:55:07.325Z,353
2022-08-30T11:56:09.361Z,349
2022-08-30T11:57:08.093Z,328
2022-08-30T11:58:07.603Z,385
2022-08-30T11:59:07.285Z,383
2022-08-30T12:00:07.737Z,378
2022-08-30T12:01:09.992Z,374
2022-08-30T12:02:08.100Z,376
2022-08-30T12:03:07.976Z,357
2022-08-30T12:04:07.680Z,350
2022-08-30T12:05:07.926Z,346
2022-08-30T12:06:07.402Z,351
2022-08-30T12:07:07.088Z,347
2022-08-30T12:08:07.729Z,340
2022-08-30T12:10:07.928Z,347
2022-08-30T12:11:26.445Z,341
2022-08-30T12:12:07.164Z,347
2022-08-30T12:14:09.430Z,344
2022-08-30T12:15:07.605Z,347
2022-08-30T12:16:07.375Z,362
2022-08-30T12:17:07.331Z,357
2022-08-30T12:19:07.265Z,349
2022-08-30T12:20:07.792Z,343
2022-08-30T12:21:07.853Z,349
2022-08-30T12:22:07.464Z,338
2022-08-30T12:23:07.465Z,347
2022-08-30T12:25:07.728Z,343
2022-08-30T12:26:07.122Z,362
2022-08-30T12:27:07.625Z,366
2022-08-30T12:28:07.513Z,354
2022-08-30T12:29:07.760Z,352
2022-08-30T12:30:07.318Z,356
2022-08-30T12:31:07.420Z,351
2022-08-30T12:32:07.629Z,337
2022-08-30T12:33:07.834Z,335
2022-08-30T12:34:07.608Z,311
2022-08-30T12:35:07.348Z,331
2022-08-30T12:36:07.048Z,347
2022-08-30T12:37:07.501Z,358
2022-08-30T12:38:07.359Z,362
2022-08-30T12:39:07.721Z,361
2022-08-30T12:40:07.431Z,368
2022-08-30T12:41:06.991Z,378
2022-08-30T12:42:07.468Z,389
2022-08-30T12:43:07.771Z,382
2022-08-30T12:44:07.472Z,370
2022-08-30T12:45:07.779Z,346
2022-08-30T12:46:07.599Z,366
2022-08-30T12:47:07.701Z,358
2022-08-30T12:48:07.156Z,349
2022-08-30T12:49:07.088Z,342
2022-08-30T12:50:07.661Z,341
2022-08-30T12:51:07.840Z,337
2022-08-30T12:52:07.247Z,349
2022-08-30T12:53:10.521Z,359
2022-08-30T12:54:07.519Z,367
2022-08-30T12:55:17.400Z,363
2022-08-30T12:56:07.334Z,352
2022-08-30T12:57:25.467Z,351
2022-08-30T12:58:07.604Z,362
2022-08-30T12:59:07.537Z,348
2022-08-30T13:00:08.648Z,334
2022-08-30T13:01:07.335Z,346
2022-08-30T13:02:07.139Z,352
2022-08-30T13:03:16.268Z,359
2022-08-30T13:04:07.365Z,360
2022-08-30T13:05:07.205Z,371
2022-08-30T13:06:07.568Z,362
2022-08-30T13:07:07.528Z,352
2022-08-30T13:08:07.355Z,344
2022-08-30T13:10:07.383Z,359
2022-08-30T13:11:08.426Z,346
2022-08-30T13:13:06.988Z,343
2022-08-30T13:14:07.370Z,341
2022-08-30T13:15:07.766Z,334
2022-08-30T13:16:07.250Z,342
2022-08-30T13:17:07.087Z,325
2022-08-30T13:18:07.413Z,319
2022-08-30T13:19:07.629Z,332
2022-08-30T13:20:07.058Z,342
2022-08-30T13:21:07.548Z,315
2022-08-30T13:22:07.340Z,359
2022-08-30T13:23:07.243Z,361
2022-08-30T13:24:07.091Z,356
2022-08-30T13:25:07.945Z,352
2022-08-30T13:26:07.590Z,347
2022-08-30T13:27:07.396Z,325
2022-08-30T13:28:07.709Z,305
2022-08-30T13:29:10.526Z,319
2022-08-30T13:30:07.815Z,346
2022-08-30T13:31:07.952Z,348
2022-08-30T13:32:07.942Z,345
2022-08-30T13:33:07.562Z,364
2022-08-30T13:34:07.321Z,346
2022-08-30T13:36:07.817Z,336
2022-08-30T13:38:07.825Z,344
2022-08-30T13:39:07.574Z,350
2022-08-30T13:40:07.525Z,348
2022-08-30T13:41:07.069Z,344
2022-08-30T13:42:32.769Z,340
2022-08-30T13:44:11.989Z,343
2022-08-30T13:45:40.900Z,350
2022-08-30T13:46:07.810Z,311
2022-08-30T13:47:34.426Z,315
2022-08-30T13:48:07.052Z,327
2022-08-30T13:49:43.023Z,344
2022-08-30T13:50:07.781Z,348
2022-08-30T13:51:07.979Z,337
2022-08-30T13:52:20.358Z,338
2022-08-30T13:53:07.259Z,334
2022-08-30T13:54:07.888Z,323
2022-08-30T13:55:07.652Z,336
2022-08-30T13:56:14.156Z,332
2022-08-30T13:57:07.886Z,367
2022-08-30T13:58:07.681Z,356
2022-08-30T13:59:07.914Z,350
2022-08-30T14:00:08.175Z,358
2022-08-30T14:01:07.397Z,346
2022-08-30T14:02:12.565Z,332
2022-08-30T14:03:07.451Z,354
2022-08-30T14:04:15.859Z,348
2022-08-30T14:05:11.073Z,344
2022-08-30T14:06:31.727Z,340
2022-08-30T14:07:20.008Z,334
2022-08-30T14:08:07.352Z,355
2022-08-30T14:09:07.301Z,326
2022-08-30T14:10:32.409Z,343
2022-08-30T14:11:07.697Z,350
2022-08-30T14:12:07.482Z,342
2022-08-30T14:13:09.093Z,333
2022-08-30T14:14:15.073Z,337
2022-08-30T14:15:07.602Z,351
2022-08-30T14:17:07.504Z,343
2022-08-30T14:18:07.546Z,336
2022-08-30T14:19:07.675Z,320
2022-08-30T14:20:07.543Z,373
2022-08-30T14:21:07.903Z,344
2022-08-30T14:22:07.322Z,324